sensor_id;sensor_type;location;lat;lon;timestamp;temperature;humidity
32787;DHT22;19139;49.372;8.580;2023-07-20T00:00:00;23.80;82.10
32787;DHT22;19139;49.372;8.580;2023-07-20T00:02:27;23.70;82.10
32787;DHT22;19139;49.372;8.580;2023-07-20T00:04:54;23.70;82.10
32787;DHT22;19139;49.372;8.580;2023-07-20T00:07:21;23.80;82.10
32787;DHT22;19139;49.372;8.580;2023-07-20T00:09:47;23.80;82.20
32787;DHT22;19139;49.372;8.580;2023-07-20T00:12:14;23.70;82.30
32787;DHT22;19139;49.372;8.580;2023-07-20T00:14:41;23.70;82.40
32787;DHT22;19139;49.372;8.580;2023-07-20T00:17:07;23.70;82.50
32787;DHT22;19139;49.372;8.580;2023-07-20T00:19:34;23.70;82.40
32787;DHT22;19139;49.372;8.580;2023-07-20T00:22:01;23.70;82.50
32787;DHT22;19139;49.372;8.580;2023-07-20T00:24:28;23.70;82.60
32787;DHT22;19139;49.372;8.580;2023-07-20T00:26:55;23.60;82.60
32787;DHT22;19139;49.372;8.580;2023-07-20T00:29:21;23.60;82.60
32787;DHT22;19139;49.372;8.580;2023-07-20T00:31:48;23.60;82.80
32787;DHT22;19139;49.372;8.580;2023-07-20T00:34:17;23.60;82.80
32787;DHT22;19139;49.372;8.580;2023-07-20T00:36:44;23.60;82.90
32787;DHT22;19139;49.372;8.580;2023-07-20T00:39:10;23.60;83.00
32787;DHT22;19139;49.372;8.580;2023-07-20T00:41:37;23.50;83.00
32787;DHT22;19139;49.372;8.580;2023-07-20T00:44:04;23.50;83.20
32787;DHT22;19139;49.372;8.580;2023-07-20T00:46:32;23.50;83.20
32787;DHT22;19139;49.372;8.580;2023-07-20T00:49:00;23.50;83.20
32787;DHT22;19139;49.372;8.580;2023-07-20T00:51:27;23.50;83.40
32787;DHT22;19139;49.372;8.580;2023-07-20T00:53:54;23.40;83.30
32787;DHT22;19139;49.372;8.580;2023-07-20T00:56:22;23.40;83.40
32787;DHT22;19139;49.372;8.580;2023-07-20T00:58:49;23.40;83.40
32787;DHT22;19139;49.372;8.580;2023-07-20T01:01:17;23.40;83.40
32787;DHT22;19139;49.372;8.580;2023-07-20T01:03:43;23.40;83.50
32787;DHT22;19139;49.372;8.580;2023-07-20T01:06:23;23.40;83.60
32787;DHT22;19139;49.372;8.580;2023-07-20T01:11:48;23.30;83.70
32787;DHT22;19139;49.372;8.580;2023-07-20T01:14:16;23.30;83.80
32787;DHT22;19139;49.372;8.580;2023-07-20T01:16:43;23.30;83.90
32787;DHT22;19139;49.372;8.580;2023-07-20T01:19:12;23.30;84.00
32787;DHT22;19139;49.372;8.580;2023-07-20T01:21:53;23.20;83.90
32787;DHT22;19139;49.372;8.580;2023-07-20T01:24:38;23.20;84.10
32787;DHT22;19139;49.372;8.580;2023-07-20T01:27:22;23.20;84.20
32787;DHT22;19139;49.372;8.580;2023-07-20T01:30:03;23.20;84.30
32787;DHT22;19139;49.372;8.580;2023-07-20T01:32:35;23.20;84.30
32787;DHT22;19139;49.372;8.580;2023-07-20T01:35:04;23.20;84.40
32787;DHT22;19139;49.372;8.580;2023-07-20T01:37:33;23.10;84.30
32787;DHT22;19139;49.372;8.580;2023-07-20T01:40:00;23.10;84.50
32787;DHT22;19139;49.372;8.580;2023-07-20T01:42:27;23.00;84.60
32787;DHT22;19139;49.372;8.580;2023-07-20T01:44:54;23.00;84.70
32787;DHT22;19139;49.372;8.580;2023-07-20T01:47:21;23.00;84.80
32787;DHT22;19139;49.372;8.580;2023-07-20T01:49:47;23.00;84.90
32787;DHT22;19139;49.372;8.580;2023-07-20T01:52:14;22.90;85.00
32787;DHT22;19139;49.372;8.580;2023-07-20T01:54:41;22.90;85.10
32787;DHT22;19139;49.372;8.580;2023-07-20T01:57:08;22.80;85.30
32787;DHT22;19139;49.372;8.580;2023-07-20T01:59:35;22.80;85.50
32787;DHT22;19139;49.372;8.580;2023-07-20T02:02:01;22.70;85.70
32787;DHT22;19139;49.372;8.580;2023-07-20T02:04:28;22.70;85.90
32787;DHT22;19139;49.372;8.580;2023-07-20T02:06:55;22.60;86.00
32787;DHT22;19139;49.372;8.580;2023-07-20T02:09:21;22.50;86.20
32787;DHT22;19139;49.372;8.580;2023-07-20T02:11:48;22.50;86.20
32787;DHT22;19139;49.372;8.580;2023-07-20T02:14:14;22.40;86.40
32787;DHT22;19139;49.372;8.580;2023-07-20T02:16:41;22.40;86.60
32787;DHT22;19139;49.372;8.580;2023-07-20T02:19:08;22.30;86.80
32787;DHT22;19139;49.372;8.580;2023-07-20T02:21:34;22.40;86.80
32787;DHT22;19139;49.372;8.580;2023-07-20T02:24:01;22.40;86.70
32787;DHT22;19139;49.372;8.580;2023-07-20T02:26:28;22.50;86.60
32787;DHT22;19139;49.372;8.580;2023-07-20T02:28:55;22.60;86.50
32787;DHT22;19139;49.372;8.580;2023-07-20T02:31:21;22.50;86.50
32787;DHT22;19139;49.372;8.580;2023-07-20T02:33:48;22.50;86.70
32787;DHT22;19139;49.372;8.580;2023-07-20T02:36:15;22.40;87.00
32787;DHT22;19139;49.372;8.580;2023-07-20T02:38:43;22.30;87.10
32787;DHT22;19139;49.372;8.580;2023-07-20T02:41:09;22.30;87.30
32787;DHT22;19139;49.372;8.580;2023-07-20T02:43:36;22.30;88.00
32787;DHT22;19139;49.372;8.580;2023-07-20T02:46:03;22.30;87.40
32787;DHT22;19139;49.372;8.580;2023-07-20T02:48:29;22.30;87.40
32787;DHT22;19139;49.372;8.580;2023-07-20T02:50:56;22.20;87.50
32787;DHT22;19139;49.372;8.580;2023-07-20T02:53:22;22.20;87.50
32787;DHT22;19139;49.372;8.580;2023-07-20T02:55:49;22.20;87.60
32787;DHT22;19139;49.372;8.580;2023-07-20T02:58:19;22.20;87.70
32787;DHT22;19139;49.372;8.580;2023-07-20T03:00:45;22.20;87.70
32787;DHT22;19139;49.372;8.580;2023-07-20T03:03:12;22.20;87.60
32787;DHT22;19139;49.372;8.580;2023-07-20T03:05:41;22.20;87.60
32787;DHT22;19139;49.372;8.580;2023-07-20T03:08:08;22.20;87.50
32787;DHT22;19139;49.372;8.580;2023-07-20T03:10:41;22.20;87.60
32787;DHT22;19139;49.372;8.580;2023-07-20T03:13:07;22.20;87.60
32787;DHT22;19139;49.372;8.580;2023-07-20T03:15:34;22.20;87.60
32787;DHT22;19139;49.372;8.580;2023-07-20T03:18:01;22.30;87.70
32787;DHT22;19139;49.372;8.580;2023-07-20T03:20:28;22.30;87.70
32787;DHT22;19139;49.372;8.580;2023-07-20T03:22:54;22.30;87.70
32787;DHT22;19139;49.372;8.580;2023-07-20T03:25:21;22.10;88.00
32787;DHT22;19139;49.372;8.580;2023-07-20T03:27:48;22.00;88.30
32787;DHT22;19139;49.372;8.580;2023-07-20T03:30:15;22.00;88.50
32787;DHT22;19139;49.372;8.580;2023-07-20T03:32:42;22.00;88.50
32787;DHT22;19139;49.372;8.580;2023-07-20T03:35:09;22.00;88.50
32787;DHT22;19139;49.372;8.580;2023-07-20T03:37:35;21.90;88.60
32787;DHT22;19139;49.372;8.580;2023-07-20T03:40:03;21.80;89.00
32787;DHT22;19139;49.372;8.580;2023-07-20T03:42:31;21.70;89.30
32787;DHT22;19139;49.372;8.580;2023-07-20T03:44:57;21.50;89.80
32787;DHT22;19139;49.372;8.580;2023-07-20T03:47:24;21.40;90.00
32787;DHT22;19139;49.372;8.580;2023-07-20T03:49:51;21.20;90.20
32787;DHT22;19139;49.372;8.580;2023-07-20T03:52:17;21.10;90.50
32787;DHT22;19139;49.372;8.580;2023-07-20T03:54:44;21.10;90.60
32787;DHT22;19139;49.372;8.580;2023-07-20T03:57:11;21.10;90.60
32787;DHT22;19139;49.372;8.580;2023-07-20T03:59:38;21.10;90.60
32787;DHT22;19139;49.372;8.580;2023-07-20T04:02:05;21.10;90.60
32787;DHT22;19139;49.372;8.580;2023-07-20T04:04:32;21.20;90.50
32787;DHT22;19139;49.372;8.580;2023-07-20T04:06:59;21.30;90.50
32787;DHT22;19139;49.372;8.580;2023-07-20T04:09:25;21.40;90.50
32787;DHT22;19139;49.372;8.580;2023-07-20T04:11:52;21.40;90.40
32787;DHT22;19139;49.372;8.580;2023-07-20T04:14:19;21.50;90.40
32787;DHT22;19139;49.372;8.580;2023-07-20T04:16:48;21.50;90.40
32787;DHT22;19139;49.372;8.580;2023-07-20T04:19:15;21.60;90.30
32787;DHT22;19139;49.372;8.580;2023-07-20T04:21:42;21.50;90.30
32787;DHT22;19139;49.372;8.580;2023-07-20T04:24:08;21.50;90.30
32787;DHT22;19139;49.372;8.580;2023-07-20T04:26:35;21.60;90.40
32787;DHT22;19139;49.372;8.580;2023-07-20T04:29:03;21.60;90.40
32787;DHT22;19139;49.372;8.580;2023-07-20T04:31:30;21.60;90.40
32787;DHT22;19139;49.372;8.580;2023-07-20T04:33:59;21.60;90.40
32787;DHT22;19139;49.372;8.580;2023-07-20T04:36:26;21.60;90.40
32787;DHT22;19139;49.372;8.580;2023-07-20T04:38:52;21.60;90.50
32787;DHT22;19139;49.372;8.580;2023-07-20T04:41:19;21.50;90.50
32787;DHT22;19139;49.372;8.580;2023-07-20T04:43:47;21.50;90.60
32787;DHT22;19139;49.372;8.580;2023-07-20T04:46:13;21.50;90.60
32787;DHT22;19139;49.372;8.580;2023-07-20T04:48:41;21.50;90.70
32787;DHT22;19139;49.372;8.580;2023-07-20T04:51:08;21.50;90.70
32787;DHT22;19139;49.372;8.580;2023-07-20T04:53:34;21.50;90.80
32787;DHT22;19139;49.372;8.580;2023-07-20T04:56:01;21.50;90.80
32787;DHT22;19139;49.372;8.580;2023-07-20T04:58:28;21.50;90.80
32787;DHT22;19139;49.372;8.580;2023-07-20T05:00:55;21.50;90.80
32787;DHT22;19139;49.372;8.580;2023-07-20T05:03:21;21.60;90.80
32787;DHT22;19139;49.372;8.580;2023-07-20T05:05:48;21.60;90.80
32787;DHT22;19139;49.372;8.580;2023-07-20T05:08:16;21.60;90.80
32787;DHT22;19139;49.372;8.580;2023-07-20T05:10:43;21.60;90.80
32787;DHT22;19139;49.372;8.580;2023-07-20T05:13:09;21.60;90.80
32787;DHT22;19139;49.372;8.580;2023-07-20T05:15:36;21.60;90.80
32787;DHT22;19139;49.372;8.580;2023-07-20T05:18:03;21.60;90.80
32787;DHT22;19139;49.372;8.580;2023-07-20T05:20:30;21.70;90.80
32787;DHT22;19139;49.372;8.580;2023-07-20T05:22:58;21.70;90.80
32787;DHT22;19139;49.372;8.580;2023-07-20T05:25:25;21.70;90.70
32787;DHT22;19139;49.372;8.580;2023-07-20T05:27:53;21.80;90.70
32787;DHT22;19139;49.372;8.580;2023-07-20T05:30:21;21.80;90.70
32787;DHT22;19139;49.372;8.580;2023-07-20T05:32:48;21.80;90.70
32787;DHT22;19139;49.372;8.580;2023-07-20T05:35:18;21.70;90.80
32787;DHT22;19139;49.372;8.580;2023-07-20T05:37:45;21.70;90.90
32787;DHT22;19139;49.372;8.580;2023-07-20T05:40:13;21.80;90.80
32787;DHT22;19139;49.372;8.580;2023-07-20T05:42:41;21.80;90.80
32787;DHT22;19139;49.372;8.580;2023-07-20T05:45:08;21.80;90.80
32787;DHT22;19139;49.372;8.580;2023-07-20T05:47:34;21.90;90.80
32787;DHT22;19139;49.372;8.580;2023-07-20T05:50:01;21.80;90.80
32787;DHT22;19139;49.372;8.580;2023-07-20T05:52:28;21.90;90.80
32787;DHT22;19139;49.372;8.580;2023-07-20T05:54:54;21.90;90.80
32787;DHT22;19139;49.372;8.580;2023-07-20T05:57:21;22.00;90.80
32787;DHT22;19139;49.372;8.580;2023-07-20T05:59:48;22.10;90.70
32787;DHT22;19139;49.372;8.580;2023-07-20T06:02:15;22.10;90.70
32787;DHT22;19139;49.372;8.580;2023-07-20T06:04:42;22.10;90.70
32787;DHT22;19139;49.372;8.580;2023-07-20T06:07:08;22.00;90.80
32787;DHT22;19139;49.372;8.580;2023-07-20T06:09:36;22.00;90.80
32787;DHT22;19139;49.372;8.580;2023-07-20T06:12:03;22.00;90.90
32787;DHT22;19139;49.372;8.580;2023-07-20T06:14:30;22.00;90.90
32787;DHT22;19139;49.372;8.580;2023-07-20T06:16:57;22.10;90.90
32787;DHT22;19139;49.372;8.580;2023-07-20T06:19:23;22.10;90.90
32787;DHT22;19139;49.372;8.580;2023-07-20T06:21:50;22.20;90.90
32787;DHT22;19139;49.372;8.580;2023-07-20T06:24:17;22.20;90.90
32787;DHT22;19139;49.372;8.580;2023-07-20T06:26:44;22.20;90.90
32787;DHT22;19139;49.372;8.580;2023-07-20T06:29:10;22.20;90.80
32787;DHT22;19139;49.372;8.580;2023-07-20T06:31:37;22.30;90.80
32787;DHT22;19139;49.372;8.580;2023-07-20T06:34:04;22.30;91.10
32787;DHT22;19139;49.372;8.580;2023-07-20T06:36:31;22.20;90.80
32787;DHT22;19139;49.372;8.580;2023-07-20T06:38:57;22.30;90.90
32787;DHT22;19139;49.372;8.580;2023-07-20T06:41:27;22.30;90.90
32787;DHT22;19139;49.372;8.580;2023-07-20T06:43:56;22.40;90.90
32787;DHT22;19139;49.372;8.580;2023-07-20T06:46:25;22.40;90.90
32787;DHT22;19139;49.372;8.580;2023-07-20T06:48:53;22.50;90.90
32787;DHT22;19139;49.372;8.580;2023-07-20T06:51:23;22.50;90.80
32787;DHT22;19139;49.372;8.580;2023-07-20T06:53:50;22.50;90.70
32787;DHT22;19139;49.372;8.580;2023-07-20T06:56:16;22.50;90.70
32787;DHT22;19139;49.372;8.580;2023-07-20T06:58:43;22.50;90.70
32787;DHT22;19139;49.372;8.580;2023-07-20T07:01:10;22.60;90.70
32787;DHT22;19139;49.372;8.580;2023-07-20T07:03:36;22.60;90.70
32787;DHT22;19139;49.372;8.580;2023-07-20T07:06:03;22.60;90.60
32787;DHT22;19139;49.372;8.580;2023-07-20T07:08:30;22.70;90.60
32787;DHT22;19139;49.372;8.580;2023-07-20T07:10:57;22.70;90.60
32787;DHT22;19139;49.372;8.580;2023-07-20T07:13:24;22.70;90.50
32787;DHT22;19139;49.372;8.580;2023-07-20T07:15:51;22.80;90.50
32787;DHT22;19139;49.372;8.580;2023-07-20T07:18:18;22.80;90.30
32787;DHT22;19139;49.372;8.580;2023-07-20T07:20:51;22.80;90.30
32787;DHT22;19139;49.372;8.580;2023-07-20T07:23:18;22.80;90.10
32787;DHT22;19139;49.372;8.580;2023-07-20T07:25:45;22.90;90.00
32787;DHT22;19139;49.372;8.580;2023-07-20T07:28:12;22.90;90.00
32787;DHT22;19139;49.372;8.580;2023-07-20T07:30:39;22.90;89.80
32787;DHT22;19139;49.372;8.580;2023-07-20T07:33:06;22.90;89.70
32787;DHT22;19139;49.372;8.580;2023-07-20T07:35:33;22.90;89.50
32787;DHT22;19139;49.372;8.580;2023-07-20T07:38:00;23.00;89.70
32787;DHT22;19139;49.372;8.580;2023-07-20T07:40:46;23.00;89.40
32787;DHT22;19139;49.372;8.580;2023-07-20T07:43:13;23.00;89.20
32787;DHT22;19139;49.372;8.580;2023-07-20T07:45:40;23.00;88.80
32787;DHT22;19139;49.372;8.580;2023-07-20T07:48:07;23.10;88.70
32787;DHT22;19139;49.372;8.580;2023-07-20T07:50:34;23.10;88.60
32787;DHT22;19139;49.372;8.580;2023-07-20T07:53:01;23.10;88.40
32787;DHT22;19139;49.372;8.580;2023-07-20T07:55:28;23.10;88.40
32787;DHT22;19139;49.372;8.580;2023-07-20T07:57:55;23.10;88.20
32787;DHT22;19139;49.372;8.580;2023-07-20T08:00:21;23.20;87.70
32787;DHT22;19139;49.372;8.580;2023-07-20T08:02:50;23.20;87.30
32787;DHT22;19139;49.372;8.580;2023-07-20T08:05:17;23.20;87.10
32787;DHT22;19139;49.372;8.580;2023-07-20T08:07:43;23.20;87.30
32787;DHT22;19139;49.372;8.580;2023-07-20T08:10:10;23.20;87.40
32787;DHT22;19139;49.372;8.580;2023-07-20T08:12:37;23.20;87.30
32787;DHT22;19139;49.372;8.580;2023-07-20T08:15:04;23.30;87.50
32787;DHT22;19139;49.372;8.580;2023-07-20T08:17:31;23.40;87.30
32787;DHT22;19139;49.372;8.580;2023-07-20T08:19:58;23.40;87.10
32787;DHT22;19139;49.372;8.580;2023-07-20T08:22:24;23.40;87.00
32787;DHT22;19139;49.372;8.580;2023-07-20T08:24:51;23.50;86.90
32787;DHT22;19139;49.372;8.580;2023-07-20T08:27:18;23.50;87.00
32787;DHT22;19139;49.372;8.580;2023-07-20T08:29:44;23.50;86.90
32787;DHT22;19139;49.372;8.580;2023-07-20T08:32:11;23.50;87.00
32787;DHT22;19139;49.372;8.580;2023-07-20T08:34:40;23.50;86.70
32787;DHT22;19139;49.372;8.580;2023-07-20T08:37:06;23.50;86.40
32787;DHT22;19139;49.372;8.580;2023-07-20T08:39:33;23.50;86.40
32787;DHT22;19139;49.372;8.580;2023-07-20T08:42:01;23.50;86.60
32787;DHT22;19139;49.372;8.580;2023-07-20T08:44:32;23.50;86.30
32787;DHT22;19139;49.372;8.580;2023-07-20T08:47:04;23.50;86.50
32787;DHT22;19139;49.372;8.580;2023-07-20T08:49:32;23.60;86.50
32787;DHT22;19139;49.372;8.580;2023-07-20T08:52:00;23.50;86.10
32787;DHT22;19139;49.372;8.580;2023-07-20T08:54:30;23.50;86.40
32787;DHT22;19139;49.372;8.580;2023-07-20T08:57:03;23.60;86.40
32787;DHT22;19139;49.372;8.580;2023-07-20T08:59:30;23.60;86.30
32787;DHT22;19139;49.372;8.580;2023-07-20T09:01:58;23.60;86.30
32787;DHT22;19139;49.372;8.580;2023-07-20T09:04:25;23.60;85.90
32787;DHT22;19139;49.372;8.580;2023-07-20T09:06:52;23.60;85.80
32787;DHT22;19139;49.372;8.580;2023-07-20T09:09:19;23.60;85.50
32787;DHT22;19139;49.372;8.580;2023-07-20T09:11:51;23.60;85.30
32787;DHT22;19139;49.372;8.580;2023-07-20T09:14:18;23.60;85.30
32787;DHT22;19139;49.372;8.580;2023-07-20T09:16:55;23.60;85.50
32787;DHT22;19139;49.372;8.580;2023-07-20T09:19:22;23.60;85.60
32787;DHT22;19139;49.372;8.580;2023-07-20T09:21:50;23.60;85.30
32787;DHT22;19139;49.372;8.580;2023-07-20T09:24:18;23.60;85.50
32787;DHT22;19139;49.372;8.580;2023-07-20T09:26:47;23.60;85.50
32787;DHT22;19139;49.372;8.580;2023-07-20T09:29:21;23.60;85.50
32787;DHT22;19139;49.372;8.580;2023-07-20T09:32:01;23.60;85.50
32787;DHT22;19139;49.372;8.580;2023-07-20T09:34:29;23.70;85.20
32787;DHT22;19139;49.372;8.580;2023-07-20T09:37:01;23.70;85.30
32787;DHT22;19139;49.372;8.580;2023-07-20T09:39:29;23.70;84.90
32787;DHT22;19139;49.372;8.580;2023-07-20T09:42:00;23.70;85.30
32787;DHT22;19139;49.372;8.580;2023-07-20T09:44:30;23.70;85.30
32787;DHT22;19139;49.372;8.580;2023-07-20T09:47:03;23.70;85.30
32787;DHT22;19139;49.372;8.580;2023-07-20T09:49:31;23.70;85.30
32787;DHT22;19139;49.372;8.580;2023-07-20T09:52:18;23.70;85.30
32787;DHT22;19139;49.372;8.580;2023-07-20T09:55:08;23.70;85.50
32787;DHT22;19139;49.372;8.580;2023-07-20T09:57:36;23.70;85.30
32787;DHT22;19139;49.372;8.580;2023-07-20T10:00:05;23.70;85.30
32787;DHT22;19139;49.372;8.580;2023-07-20T10:02:44;23.70;85.30
32787;DHT22;19139;49.372;8.580;2023-07-20T10:05:15;23.70;84.90
32787;DHT22;19139;49.372;8.580;2023-07-20T10:07:50;23.70;85.00
32787;DHT22;19139;49.372;8.580;2023-07-20T10:10:40;23.80;85.00
32787;DHT22;19139;49.372;8.580;2023-07-20T10:13:12;23.80;85.10
32787;DHT22;19139;49.372;8.580;2023-07-20T10:15:45;23.80;85.00
32787;DHT22;19139;49.372;8.580;2023-07-20T10:18:18;23.80;85.10
32787;DHT22;19139;49.372;8.580;2023-07-20T10:20:50;23.80;85.00
32787;DHT22;19139;49.372;8.580;2023-07-20T10:23:21;23.80;84.80
32787;DHT22;19139;49.372;8.580;2023-07-20T10:25:48;23.80;84.40
32787;DHT22;19139;49.372;8.580;2023-07-20T10:28:16;23.80;84.40
32787;DHT22;19139;49.372;8.580;2023-07-20T10:30:43;23.80;84.80
32787;DHT22;19139;49.372;8.580;2023-07-20T10:33:10;23.80;84.30
32787;DHT22;19139;49.372;8.580;2023-07-20T10:35:56;23.90;84.30
32787;DHT22;19139;49.372;8.580;2023-07-20T10:43:47;23.90;83.90
32787;DHT22;19139;49.372;8.580;2023-07-20T10:46:15;23.90;83.20
32787;DHT22;19139;49.372;8.580;2023-07-20T10:49:01;23.90;82.70
32787;DHT22;19139;49.372;8.580;2023-07-20T10:51:28;24.00;82.70
32787;DHT22;19139;49.372;8.580;2023-07-20T10:53:58;24.00;82.50
32787;DHT22;19139;49.372;8.580;2023-07-20T10:56:28;24.00;82.40
32787;DHT22;19139;49.372;8.580;2023-07-20T10:58:59;24.00;82.10
32787;DHT22;19139;49.372;8.580;2023-07-20T11:01:30;24.00;82.10
32787;DHT22;19139;49.372;8.580;2023-07-20T11:03:59;24.00;82.20
32787;DHT22;19139;49.372;8.580;2023-07-20T11:11:35;24.00;81.60
32787;DHT22;19139;49.372;8.580;2023-07-20T11:14:05;24.00;81.70
32787;DHT22;19139;49.372;8.580;2023-07-20T11:19:04;24.00;81.50
32787;DHT22;19139;49.372;8.580;2023-07-20T11:21:37;24.10;81.50
32787;DHT22;19139;49.372;8.580;2023-07-20T11:24:22;24.10;81.60
32787;DHT22;19139;49.372;8.580;2023-07-20T11:26:53;24.10;81.80
32787;DHT22;19139;49.372;8.580;2023-07-20T11:29:21;24.10;81.60
32787;DHT22;19139;49.372;8.580;2023-07-20T11:31:59;24.20;81.60
32787;DHT22;19139;49.372;8.580;2023-07-20T11:34:26;24.20;81.40
32787;DHT22;19139;49.372;8.580;2023-07-20T11:36:54;24.20;81.10
32787;DHT22;19139;49.372;8.580;2023-07-20T11:39:24;24.20;81.20
32787;DHT22;19139;49.372;8.580;2023-07-20T11:41:56;24.20;81.60
32787;DHT22;19139;49.372;8.580;2023-07-20T11:44:25;24.20;81.00
32787;DHT22;19139;49.372;8.580;2023-07-20T11:47:08;24.20;80.70
32787;DHT22;19139;49.372;8.580;2023-07-20T11:49:42;24.20;80.60
32787;DHT22;19139;49.372;8.580;2023-07-20T11:52:14;24.20;80.20
32787;DHT22;19139;49.372;8.580;2023-07-20T11:54:43;24.20;80.50
32787;DHT22;19139;49.372;8.580;2023-07-20T11:57:19;24.20;80.60
32787;DHT22;19139;49.372;8.580;2023-07-20T12:00:02;24.30;80.70
32787;DHT22;19139;49.372;8.580;2023-07-20T12:02:35;24.20;79.80
32787;DHT22;19139;49.372;8.580;2023-07-20T12:05:02;24.30;79.60
32787;DHT22;19139;49.372;8.580;2023-07-20T12:07:36;24.30;79.70
32787;DHT22;19139;49.372;8.580;2023-07-20T12:10:12;24.30;79.10
32787;DHT22;19139;49.372;8.580;2023-07-20T12:12:40;24.40;79.00
32787;DHT22;19139;49.372;8.580;2023-07-20T12:17:43;24.40;78.70
32787;DHT22;19139;49.372;8.580;2023-07-20T12:20:11;24.40;78.40
32787;DHT22;19139;49.372;8.580;2023-07-20T12:22:39;24.40;78.30
32787;DHT22;19139;49.372;8.580;2023-07-20T12:25:07;24.50;78.20
32787;DHT22;19139;49.372;8.580;2023-07-20T12:27:37;24.50;78.20
32787;DHT22;19139;49.372;8.580;2023-07-20T12:30:08;24.50;77.30
32787;DHT22;19139;49.372;8.580;2023-07-20T12:32:34;24.60;77.20
32787;DHT22;19139;49.372;8.580;2023-07-20T12:35:01;24.60;77.40
32787;DHT22;19139;49.372;8.580;2023-07-20T12:37:28;24.60;77.20
32787;DHT22;19139;49.372;8.580;2023-07-20T12:39:55;24.60;76.80
32787;DHT22;19139;49.372;8.580;2023-07-20T12:42:22;24.60;77.10
32787;DHT22;19139;49.372;8.580;2023-07-20T12:44:49;24.60;77.20
32787;DHT22;19139;49.372;8.580;2023-07-20T12:47:17;24.70;77.30
32787;DHT22;19139;49.372;8.580;2023-07-20T12:49:44;24.70;77.30
32787;DHT22;19139;49.372;8.580;2023-07-20T12:52:12;24.70;77.00
32787;DHT22;19139;49.372;8.580;2023-07-20T12:54:38;24.70;76.80
32787;DHT22;19139;49.372;8.580;2023-07-20T12:57:05;24.70;76.40
32787;DHT22;19139;49.372;8.580;2023-07-20T12:59:35;24.70;76.70
32787;DHT22;19139;49.372;8.580;2023-07-20T13:02:02;24.60;77.00
32787;DHT22;19139;49.372;8.580;2023-07-20T13:04:29;24.60;76.60
32787;DHT22;19139;49.372;8.580;2023-07-20T13:06:56;24.60;76.60
32787;DHT22;19139;49.372;8.580;2023-07-20T13:09:25;24.70;76.50
32787;DHT22;19139;49.372;8.580;2023-07-20T13:11:52;24.70;76.50
32787;DHT22;19139;49.372;8.580;2023-07-20T13:14:19;24.70;76.60
32787;DHT22;19139;49.372;8.580;2023-07-20T13:16:46;24.70;77.20
32787;DHT22;19139;49.372;8.580;2023-07-20T13:19:13;24.70;77.70
32787;DHT22;19139;49.372;8.580;2023-07-20T13:21:39;24.70;78.90
32787;DHT22;19139;49.372;8.580;2023-07-20T13:24:06;24.70;78.50
32787;DHT22;19139;49.372;8.580;2023-07-20T13:26:33;24.70;78.00
32787;DHT22;19139;49.372;8.580;2023-07-20T13:29:02;24.70;77.60
32787;DHT22;19139;49.372;8.580;2023-07-20T13:31:29;24.70;77.90
32787;DHT22;19139;49.372;8.580;2023-07-20T13:33:58;24.70;78.20
32787;DHT22;19139;49.372;8.580;2023-07-20T13:36:26;24.70;78.10
32787;DHT22;19139;49.372;8.580;2023-07-20T13:38:56;24.70;78.90
32787;DHT22;19139;49.372;8.580;2023-07-20T13:41:22;24.70;78.50
32787;DHT22;19139;49.372;8.580;2023-07-20T13:43:50;24.70;78.80
32787;DHT22;19139;49.372;8.580;2023-07-20T13:46:17;24.70;79.30
32787;DHT22;19139;49.372;8.580;2023-07-20T13:49:04;24.70;79.70
32787;DHT22;19139;49.372;8.580;2023-07-20T13:51:39;24.80;78.80
32787;DHT22;19139;49.372;8.580;2023-07-20T13:54:07;24.80;78.50
32787;DHT22;19139;49.372;8.580;2023-07-20T13:56:37;24.80;77.80
32787;DHT22;19139;49.372;8.580;2023-07-20T13:59:03;24.80;77.00
32787;DHT22;19139;49.372;8.580;2023-07-20T14:01:32;24.90;76.80
32787;DHT22;19139;49.372;8.580;2023-07-20T14:04:03;25.00;75.40
32787;DHT22;19139;49.372;8.580;2023-07-20T14:06:32;25.00;74.80
32787;DHT22;19139;49.372;8.580;2023-07-20T14:08:59;25.00;75.00
32787;DHT22;19139;49.372;8.580;2023-07-20T14:11:27;25.00;76.20
32787;DHT22;19139;49.372;8.580;2023-07-20T14:13:56;25.00;76.20
32787;DHT22;19139;49.372;8.580;2023-07-20T14:16:24;25.00;75.70
32787;DHT22;19139;49.372;8.580;2023-07-20T14:18:52;25.00;75.10
32787;DHT22;19139;49.372;8.580;2023-07-20T14:21:20;25.00;74.50
32787;DHT22;19139;49.372;8.580;2023-07-20T14:23:50;25.00;74.30
32787;DHT22;19139;49.372;8.580;2023-07-20T14:26:20;25.00;74.60
32787;DHT22;19139;49.372;8.580;2023-07-20T14:28:49;25.00;74.40
32787;DHT22;19139;49.372;8.580;2023-07-20T14:31:16;25.00;74.30
32787;DHT22;19139;49.372;8.580;2023-07-20T14:33:44;25.10;74.00
32787;DHT22;19139;49.372;8.580;2023-07-20T14:36:12;25.00;73.80
32787;DHT22;19139;49.372;8.580;2023-07-20T14:38:38;25.00;73.60
32787;DHT22;19139;49.372;8.580;2023-07-20T14:41:06;25.00;73.50
32787;DHT22;19139;49.372;8.580;2023-07-20T14:43:33;25.10;73.70
32787;DHT22;19139;49.372;8.580;2023-07-20T14:46:00;25.00;73.90
32787;DHT22;19139;49.372;8.580;2023-07-20T14:48:27;25.00;74.40
32787;DHT22;19139;49.372;8.580;2023-07-20T14:50:53;25.00;74.10
32787;DHT22;19139;49.372;8.580;2023-07-20T14:53:30;25.10;74.10
32787;DHT22;19139;49.372;8.580;2023-07-20T14:56:01;25.10;73.90
32787;DHT22;19139;49.372;8.580;2023-07-20T14:58:28;25.10;73.80
32787;DHT22;19139;49.372;8.580;2023-07-20T15:00:55;25.10;74.00
32787;DHT22;19139;49.372;8.580;2023-07-20T15:03:22;25.10;74.40
32787;DHT22;19139;49.372;8.580;2023-07-20T15:05:48;25.10;74.40
32787;DHT22;19139;49.372;8.580;2023-07-20T15:08:18;25.10;74.50
32787;DHT22;19139;49.372;8.580;2023-07-20T15:10:45;25.10;74.50
32787;DHT22;19139;49.372;8.580;2023-07-20T15:13:13;25.10;74.60
32787;DHT22;19139;49.372;8.580;2023-07-20T15:15:40;25.10;74.70
32787;DHT22;19139;49.372;8.580;2023-07-20T15:18:06;25.10;74.90
32787;DHT22;19139;49.372;8.580;2023-07-20T15:20:33;25.10;75.50
32787;DHT22;19139;49.372;8.580;2023-07-20T15:23:00;25.10;75.40
32787;DHT22;19139;49.372;8.580;2023-07-20T15:25:27;25.10;75.90
32787;DHT22;19139;49.372;8.580;2023-07-20T15:27:55;25.10;76.30
32787;DHT22;19139;49.372;8.580;2023-07-20T15:30:22;25.10;75.50
32787;DHT22;19139;49.372;8.580;2023-07-20T15:32:52;25.10;75.50
32787;DHT22;19139;49.372;8.580;2023-07-20T15:35:22;25.10;74.90
32787;DHT22;19139;49.372;8.580;2023-07-20T15:37:49;25.10;74.60
32787;DHT22;19139;49.372;8.580;2023-07-20T15:40:16;25.10;74.00
32787;DHT22;19139;49.372;8.580;2023-07-20T15:42:43;25.20;73.60
32787;DHT22;19139;49.372;8.580;2023-07-20T15:45:18;25.20;73.70
32787;DHT22;19139;49.372;8.580;2023-07-20T15:47:47;25.20;73.30
32787;DHT22;19139;49.372;8.580;2023-07-20T15:50:13;25.20;72.80
32787;DHT22;19139;49.372;8.580;2023-07-20T15:52:40;25.20;74.10
32787;DHT22;19139;49.372;8.580;2023-07-20T15:55:08;25.20;75.30